• Join FlightAware (Why Join?)
  • Login
  • US Flag 
04:06PM EST


 

Airport Tracker/Info


-or-


 

Live Flight TrackerFlight Track Log ✈ SWA482 ✈ 07.05.2013 ✈ KPHX - KABQ

Flight Track Log - Related Links

Times and Time Zones

All times are in EDT time to prevent confusion due to time zone crossing. See the SWA482 flight status page for this flight to view local times or setup timezone preferences in your user account.

Time Position Orientation Groundspeed Altitude Reporting Facility
EDT Latitude Longitude Course Direction KTS MPH feet Rate Location/Type
10:03PM 33.4333 -112.0333 257° West 139 160 2,000  Level Phoenix TRACON
10:04PM 33.4325 -112.0378 257° West 148 170 2,600 1,620 Climbing Albuquerque Center
10:05PM 33.4336 -112.0983 271° West 172 198 4,200 2,520 Climbing Albuquerque Center
10:06PM 33.4475 -112.1850 281° West 255 293 7,800 3,240 Climbing Albuquerque Center
10:07PM 33.5239 -112.1786 North 320 368 10,900 3,060 Climbing Albuquerque Center
10:08PM 33.5489 -112.0625 75° East 363 418 14,100 3,000 Climbing Albuquerque Center
10:09PM 33.5719 -111.9367 78° East 384 442 17,100 3,120 Climbing Albuquerque Center
10:10PM 33.5997 -111.7750 78° East 410 472 20,500 2,700 Climbing Albuquerque Center
10:11PM 33.6258 -111.6314 78° East 435 501 22,700 2,160 Climbing Albuquerque Center
10:12PM 33.6522 -111.4794 78° East 459 528 24,900 1,920 Climbing Albuquerque Center
10:13PM 33.6797 -111.3200 78° East 483 556 26,700 1,800 Climbing Albuquerque Center
10:14PM 33.7281 -111.1611 70° East 505 581 28,700 1,740 Climbing Albuquerque Center
10:15PM 33.7836 -111.0019 67° East 517 595 30,300 1,620 Climbing Albuquerque Center
10:16PM 33.8406 -110.8378 67° East 530 610 32,000 2,160 Climbing Albuquerque Center
10:17PM 33.9114 -110.6417 66° East 533 613 34,700 1,440 Climbing Albuquerque Center
10:18PM 33.9667 -110.4825 67° East 524 603 35,000 120 Climbing Albuquerque Center
10:19PM 34.0219 -110.3258 67° East 520 598 35,000  Level Albuquerque Center
10:20PM 34.0764 -110.1675 67° East 518 596 35,000  Level Albuquerque Center
10:21PM 34.1328 -110.0036 67° East 513 590 35,000  Level Albuquerque Center
10:22PM 34.1933 -109.8256 68° East 513 590 35,000  Level Albuquerque Center
10:23PM 34.2450 -109.6753 67° East 511 588 35,000  Level Albuquerque Center
10:24PM 34.2972 -109.5242 67° East 509 586 35,000  Level Albuquerque Center
10:25PM 34.3569 -109.3472 68° East 509 586 35,000  Level Albuquerque Center
10:26PM 34.4075 -109.1944 68° East 510 587 35,000  Level Albuquerque Center
10:27PM 34.4394 -109.0350 76° East 511 588 35,000  Level Albuquerque Center
10:28PM 34.4631 -108.8464 81° East 509 586 35,000  Level Albuquerque Center
10:29PM 34.4836 -108.6853 81° East 507 583 35,000 -1,020 Level Albuquerque Center
10:30PM 34.5075 -108.4978 81° East 507 583 33,000 -2,220 Descending Albuquerque Center
10:31PM 34.5306 -108.3572 79° East 508 585 30,600 -2,400 Descending Albuquerque Center
10:32PM 34.5592 -108.1919 78° East 504 580 28,200 -2,520 Descending Albuquerque Center
10:33PM 34.5903 -108.0025 79° East 484 557 25,500 -2,460 Descending Albuquerque Center
10:34PM 34.6156 -107.8506 79° East 467 537 23,200 -1,860 Descending Albuquerque Center
10:35PM 34.6606 -107.7169 68° East 439 505 21,800 -1,800 Descending Albuquerque Center
10:36PM 34.7153 -107.5944 61° Northeast 420 483 19,600 -2,160 Descending Albuquerque Center
10:37PM 34.7506 -107.5069 64° Northeast 401 461 18,200 -1,920 Descending Albuquerque Center
10:37PM 34.7658 -107.4750 60° Northeast 404 465 17,700 -1,980 Descending Albuquerque Center
10:38PM 34.7922 -107.4114 63° Northeast 380 437 16,600 -1,920 Descending Albuquerque Center
10:38PM 34.8142 -107.3628 61° Northeast 385 443 15,800 -1,440 Descending Albuquerque Center
10:39PM 34.8392 -107.2992 64° Northeast 361 415 15,200 -1,140 Descending Albuquerque Center
10:39PM 34.8589 -107.2561 61° Northeast 363 418 14,700 -1,380 Descending Albuquerque Center
10:40PM 34.8817 -107.1981 64° Northeast 335 386 13,800 -1,500 Descending Albuquerque Center
10:40PM 34.8958 -107.1544 68° East 341 392 13,200 -1,620 Descending Albuquerque Center
10:41PM 34.8953 -107.0911 91° East 326 375 12,200 -1,800 Descending Albuquerque Center
10:41PM 34.9006 -107.0442 82° East 333 383 11,400 -1,320 Descending Albuquerque Center
10:42PM 34.9111 -106.9836 78° East 310 357 10,900 -780 Descending Albuquerque Center
10:42PM 34.9156 -106.9444 82° East 318 366 10,600 -720 Descending Albuquerque Center
10:43PM 34.9231 -106.8925 80° East 268 308 10,200 -1,320 Descending Albuquerque Center
10:43PM 34.9294 -106.8411 81° East 277 319 9,300 -1,440 Descending Albuquerque Center
10:44PM 34.9344 -106.8094 79° East 241 277 8,800 -1,200 Descending Albuquerque Center
10:44PM 34.9414 -106.7636 80° East 253 291 8,100 -1,320 Descending Albuquerque Center
10:45PM 34.9464 -106.7314 79° East 215 247 7,500 -1,200 Descending Albuquerque Center
10:45PM 34.9619 -106.7003 59° Northeast 231 266 6,900 -1,140 Descending Albuquerque Center
10:46PM 34.9803 -106.6811 41° Northeast 186 214 6,400 -900 Descending Albuquerque Center
10:46PM 34.9978 -106.6592 46° Northeast 196 226 6,000 -840 Descending Albuquerque Center
10:47PM 35.0139 -106.6414 42° Northeast 152 175 5,600 -600 Descending Albuquerque Center
10:47PM 35.0311 -106.6189 47° Northeast 177 204 5,400 -360 Descending Albuquerque Center
10:49PM 35.0333 -106.6000 90° East  Level FlightAware Approximate